Time;durP1;ratioP1;P1;durP2;ratioP2;P2;SDS_P1;SDS_P2;PMS_P1;PMS_P2;Temp;Humidity;BMP_temperature;BMP_pressure;BME280_temperature;BME280_humidity;BME280_pressure;Samples;Min_cycle;Max_cycle;Signal;HPM_P1;HPM_P2
2022/08/30 00:02:32;;;;;;;0.00;0.00;;;;;;;;;;5134968;27;20034;-85
2022/08/30 00:05:00;;;;;;;0.08;0.08;;;;;;;;;;5115996;27;20023;-86
2022/08/30 00:07:26;;;;;;;0.00;0.00;;;;;;;;;;5117299;27;20063;-85
2022/08/30 00:09:51;;;;;;;0.40;0.40;;;;;;;;;;5135854;27;20044;-85
2022/08/30 00:12:19;;;;;;;0.80;0.80;;;;;;;;;;5117084;27;20027;-84
2022/08/30 00:14:45;;;;;;;0.32;0.20;;;;;;;;;;5135356;27;20043;-85
2022/08/30 00:17:11;;;;;;;0.00;0.00;;;;;;;;;;5135531;27;20031;-85
2022/08/30 00:19:37;;;;;;;0.28;0.28;;;;;;;;;;5135349;27;20102;-85
2022/08/30 00:22:03;;;;;;;0.15;0.15;;;;;;;;;;5135157;27;20046;-85
2022/08/30 00:24:29;;;;;;;0.30;0.30;;;;;;;;;;5116812;27;20026;-85
2022/08/30 00:26:54;;;;;;;0.98;0.98;;;;;;;;;;5135387;27;20027;-85
2022/08/30 00:29:19;;;;;;;0.05;0.00;;;;;;;;;;5134138;27;20102;-85
2022/08/30 00:31:45;;;;;;;0.22;0.22;;;;;;;;;;5135610;27;20761;-85
2022/08/30 00:34:11;;;;;;;0.00;0.00;;;;;;;;;;5116629;27;20443;-86
2022/08/30 00:36:36;;;;;;;0.57;0.57;;;;;;;;;;5134624;27;20061;-85
2022/08/30 00:39:03;;;;;;;1.55;0.85;;;;;;;;;;5115382;27;20443;-85
2022/08/30 00:41:28;;;;;;;0.00;0.00;;;;;;;;;;5111582;27;20022;-85
2022/08/30 00:43:53;;;;;;;0.08;0.08;;;;;;;;;;5135770;27;20023;-85
2022/08/30 00:46:19;;;;;;;0.85;0.82;;;;;;;;;;5134447;27;20140;-85
2022/08/30 00:48:47;;;;;;;0.15;0.15;;;;;;;;;;5115673;27;20030;-85
2022/08/30 00:51:14;;;;;;;0.30;0.30;;;;;;;;;;5133419;27;20102;-86
2022/08/30 00:53:46;;;;;;;0.63;0.38;;;;;;;;;;5134992;27;20530;-85
2022/08/30 00:56:12;;;;;;;0.38;0.38;;;;;;;;;;5134377;27;20042;-86
2022/08/30 00:58:43;;;;;;;0.10;0.10;;;;;;;;;;5131768;27;20522;-85
2022/08/30 01:01:09;;;;;;;0.30;0.30;;;;;;;;;;5134006;27;20758;-85
2022/08/30 01:03:36;;;;;;;0.20;0.20;;;;;;;;;;5132599;27;20382;-84
2022/08/30 01:06:03;;;;;;;0.17;0.17;;;;;;;;;;5134762;27;20524;-87
2022/08/30 01:08:29;;;;;;;0.25;0.25;;;;;;;;;;5134489;27;20131;-85
2022/08/30 01:10:56;;;;;;;0.00;0.00;;;;;;;;;;5132906;27;20094;-84
2022/08/30 01:13:23;;;;;;;0.22;0.22;;;;;;;;;;5113927;27;20023;-86
2022/08/30 01:15:49;;;;;;;0.52;0.50;;;;;;;;;;5133145;27;20034;-85
2022/08/30 01:18:16;;;;;;;0.00;0.00;;;;;;;;;;5134085;27;20035;-86
2022/08/30 01:20:50;;;;;;;0.00;0.00;;;;;;;;;;5134268;27;20072;-86
2022/08/30 01:23:17;;;;;;;0.25;0.25;;;;;;;;;;5133703;27;20068;-85
2022/08/30 01:25:46;;;;;;;1.25;1.15;;;;;;;;;;5115283;27;20417;-85
2022/08/30 01:28:17;;;;;;;1.08;0.30;;;;;;;;;;5133709;27;20403;-86
2022/08/30 01:30:42;;;;;;;0.05;0.05;;;;;;;;;;5131452;27;20046;-85
2022/08/30 01:33:10;;;;;;;0.43;0.43;;;;;;;;;;5115783;27;20482;-85
2022/08/30 01:35:48;;;;;;;0.20;0.20;;;;;;;;;;5134048;27;20490;-85
2022/08/30 01:38:17;;;;;;;0.00;0.00;;;;;;;;;;5132407;27;20034;-85
2022/08/30 01:40:43;;;;;;;0.10;0.10;;;;;;;;;;5133632;27;20030;-84
2022/08/30 01:43:12;;;;;;;0.28;0.28;;;;;;;;;;5114471;27;20027;-86
2022/08/30 01:45:38;;;;;;;0.32;0.30;;;;;;;;;;5133557;27;20455;-85
2022/08/30 01:48:03;;;;;;;0.28;0.20;;;;;;;;;;5132908;27;20031;-85
2022/08/30 01:50:29;;;;;;;0.63;0.63;;;;;;;;;;5133505;27;20459;-86
2022/08/30 01:52:54;;;;;;;0.10;0.10;;;;;;;;;;5133978;27;20027;-84
2022/08/30 01:55:19;;;;;;;1.40;0.60;;;;;;;;;;5101864;28;20047;-85
2022/08/30 01:57:46;;;;;;;0.30;0.30;;;;;;;;;;5099384;28;20538;-85
2022/08/30 02:00:12;;;;;;;0.20;0.20;;;;;;;;;;5103359;28;20022;-86
2022/08/30 02:02:38;;;;;;;0.05;0.05;;;;;;;;;;5099716;28;20085;-86
2022/08/30 02:05:05;;;;;;;0.40;0.40;;;;;;;;;;5101878;28;20020;-86
2022/08/30 02:07:30;;;;;;;0.00;0.00;;;;;;;;;;5094191;28;20020;-86
2022/08/30 02:09:56;;;;;;;0.17;0.17;;;;;;;;;;5102119;28;20115;-87
2022/08/30 02:12:22;;;;;;;0.22;0.22;;;;;;;;;;5098102;28;20054;-86
2022/08/30 02:14:47;;;;;;;0.00;0.00;;;;;;;;;;5104023;28;20054;-85
2022/08/30 02:17:14;;;;;;;0.45;0.45;;;;;;;;;;5100033;28;20490;-85
2022/08/30 02:19:40;;;;;;;0.10;0.10;;;;;;;;;;5099565;28;20024;-87
2022/08/30 02:22:06;;;;;;;0.47;0.47;;;;;;;;;;5099506;28;20141;-86
2022/08/30 02:24:32;;;;;;;0.40;0.40;;;;;;;;;;5097624;28;20153;-86
2022/08/30 02:26:57;;;;;;;2.25;2.00;;;;;;;;;;5103087;28;20152;-85
2022/08/30 02:29:23;;;;;;;0.10;0.10;;;;;;;;;;5097667;28;20035;-86
2022/08/30 02:31:49;;;;;;;0.10;0.10;;;;;;;;;;5102002;28;20061;-86
2022/08/30 02:34:16;;;;;;;0.52;0.43;;;;;;;;;;5097058;28;20095;-86
2022/08/30 02:36:42;;;;;;;0.63;0.40;;;;;;;;;;5097981;28;20032;-85
2022/08/30 02:39:10;;;;;;;0.00;0.00;;;;;;;;;;5100557;28;20046;-87
2022/08/30 02:41:37;;;;;;;0.00;0.00;;;;;;;;;;5099998;28;20024;-85
2022/08/30 02:44:03;;;;;;;2.53;0.77;;;;;;;;;;5094241;28;20102;-86
2022/08/30 02:46:29;;;;;;;0.00;0.00;;;;;;;;;;5093784;28;20027;-86
2022/08/30 02:48:54;;;;;;;0.10;0.10;;;;;;;;;;5098475;28;20035;-85
2022/08/30 02:51:19;;;;;;;0.52;0.52;;;;;;;;;;5097602;28;20104;-85
2022/08/30 02:53:45;;;;;;;0.00;0.00;;;;;;;;;;5103421;28;20016;-86
2022/08/30 02:56:12;;;;;;;0.20;0.20;;;;;;;;;;5125886;28;20035;-86
2022/08/30 02:58:41;;;;;;;0.13;0.13;;;;;;;;;;5132987;27;20042;-85
2022/08/30 03:01:07;;;;;;;0.45;0.45;;;;;;;;;;5132419;28;20019;-85
2022/08/30 03:03:33;;;;;;;0.10;0.10;;;;;;;;;;5132409;28;20023;-86
2022/08/30 03:05:59;;;;;;;0.13;0.13;;;;;;;;;;5132543;28;20026;-86
2022/08/30 03:08:24;;;;;;;0.00;0.00;;;;;;;;;;5130447;28;20493;-85
2022/08/30 03:10:50;;;;;;;0.00;0.00;;;;;;;;;;5131369;28;20623;-85
2022/08/30 03:13:15;;;;;;;0.73;0.57;;;;;;;;;;5113194;28;20031;-85
2022/08/30 03:15:40;;;;;;;0.88;0.88;;;;;;;;;;5132440;28;20068;-86
2022/08/30 03:18:07;;;;;;;0.17;0.17;;;;;;;;;;5110654;28;20024;-86
2022/08/30 03:20:33;;;;;;;1.55;0.75;;;;;;;;;;5113547;28;20027;-85
2022/08/30 03:22:59;;;;;;;0.50;0.50;;;;;;;;;;5113919;28;20031;-86
2022/08/30 03:25:25;;;;;;;0.00;0.00;;;;;;;;;;5129056;28;20038;-85
2022/08/30 03:27:51;;;;;;;0.17;0.17;;;;;;;;;;5129116;28;20038;-85
2022/08/30 03:30:18;;;;;;;0.75;0.75;;;;;;;;;;5129800;28;20092;-85
2022/08/30 03:32:44;;;;;;;0.30;0.30;;;;;;;;;;5129272;28;20468;-84
2022/08/30 03:35:10;;;;;;;0.10;0.10;;;;;;;;;;5130668;28;20507;-85
2022/08/30 03:37:36;;;;;;;0.00;0.00;;;;;;;;;;5128253;28;20027;-85
2022/08/30 03:40:03;;;;;;;0.10;0.10;;;;;;;;;;5132502;28;20042;-84
2022/08/30 03:42:29;;;;;;;0.45;0.45;;;;;;;;;;5112905;28;20023;-85
2022/08/30 03:44:54;;;;;;;0.10;0.10;;;;;;;;;;5107285;28;20372;-85
2022/08/30 03:47:20;;;;;;;0.05;0.05;;;;;;;;;;5131939;28;20135;-85
2022/08/30 03:49:45;;;;;;;0.52;0.10;;;;;;;;;;5109120;28;20032;-85
2022/08/30 03:52:11;;;;;;;0.25;0.25;;;;;;;;;;5114023;28;20118;-86
2022/08/30 03:54:38;;;;;;;0.10;0.10;;;;;;;;;;5108109;28;20050;-85
2022/08/30 03:57:04;;;;;;;2.35;2.20;;;;;;;;;;5096417;28;20058;-84
2022/08/30 03:59:30;;;;;;;0.00;0.00;;;;;;;;;;5099105;28;20039;-85
2022/08/30 04:01:57;;;;;;;0.28;0.28;;;;;;;;;;5103330;28;20342;-84
2022/08/30 04:04:23;;;;;;;0.68;0.68;;;;;;;;;;5103883;28;20024;-84
2022/08/30 04:06:49;;;;;;;0.10;0.10;;;;;;;;;;5100499;28;20480;-85
2022/08/30 04:09:14;;;;;;;0.55;0.47;;;;;;;;;;5087081;28;20035;-85
2022/08/30 04:11:40;;;;;;;0.47;0.30;;;;;;;;;;5094523;28;20047;-85
2022/08/30 04:14:05;;;;;;;0.22;0.22;;;;;;;;;;5099430;28;20529;-85
2022/08/30 04:16:31;;;;;;;0.70;0.70;;;;;;;;;;5096298;28;20030;-85
2022/08/30 04:18:56;;;;;;;0.50;0.50;;;;;;;;;;5101525;28;20058;-85
2022/08/30 04:21:22;;;;;;;0.32;0.32;;;;;;;;;;5094439;28;20032;-86
2022/08/30 04:23:47;;;;;;;0.80;0.80;;;;;;;;;;5097340;28;20069;-87
2022/08/30 04:26:12;;;;;;;0.43;0.43;;;;;;;;;;5098276;28;20499;-85
2022/08/30 04:28:38;;;;;;;2.10;1.30;;;;;;;;;;5102507;28;20490;-85
2022/08/30 04:31:13;;;;;;;1.55;0.85;;;;;;;;;;5104275;28;20024;-86
2022/08/30 04:33:40;;;;;;;0.38;0.38;;;;;;;;;;5094429;28;20055;-85
2022/08/30 04:36:07;;;;;;;1.55;1.45;;;;;;;;;;5101203;28;20035;-85
2022/08/30 04:38:34;;;;;;;0.30;0.30;;;;;;;;;;5103431;28;20425;-85
2022/08/30 04:40:59;;;;;;;0.32;0.32;;;;;;;;;;5094431;28;20368;-85
2022/08/30 04:43:25;;;;;;;0.40;0.32;;;;;;;;;;5093464;28;20024;-85
2022/08/30 04:45:52;;;;;;;0.20;0.20;;;;;;;;;;5094323;28;20016;-85
2022/08/30 04:48:19;;;;;;;0.63;0.63;;;;;;;;;;5094426;28;20460;-85
2022/08/30 04:50:45;;;;;;;1.88;1.77;;;;;;;;;;5096053;28;20023;-85
2022/08/30 04:53:12;;;;;;;1.00;0.35;;;;;;;;;;5093557;28;20024;-85
2022/08/30 04:55:39;;;;;;;0.55;0.45;;;;;;;;;;5116913;27;20731;-85
2022/08/30 04:58:05;;;;;;;4.13;1.23;;;;;;;;;;5133843;27;20034;-84
2022/08/30 05:00:30;;;;;;;0.38;0.38;;;;;;;;;;5115401;27;20110;-86
2022/08/30 05:02:56;;;;;;;0.57;0.57;;;;;;;;;;5134424;27;20027;-85
2022/08/30 05:05:39;;;;;;;0.20;0.20;;;;;;;;;;5109394;27;20030;-83
2022/08/30 05:08:06;;;;;;;0.00;0.00;;;;;;;;;;5129391;27;20076;-84
2022/08/30 05:10:33;;;;;;;1.10;1.05;;;;;;;;;;5133747;27;21014;-83
2022/08/30 05:12:58;;;;;;;0.77;0.77;;;;;;;;;;5113036;27;20035;-85
2022/08/30 05:15:24;;;;;;;0.13;0.13;;;;;;;;;;5134630;27;20076;-86
2022/08/30 05:17:50;;;;;;;0.43;0.40;;;;;;;;;;5135571;27;20027;-86
2022/08/30 05:20:16;;;;;;;1.27;1.27;;;;;;;;;;5117449;27;20023;-85
2022/08/30 05:22:48;;;;;;;1.48;1.38;;;;;;;;;;5117437;27;20038;-83
2022/08/30 05:25:20;;;;;;;2.33;0.85;;;;;;;;;;5133550;27;20030;-84
2022/08/30 05:27:46;;;;;;;0.30;0.30;;;;;;;;;;5129794;27;20157;-83
2022/08/30 05:30:14;;;;;;;0.55;0.38;;;;;;;;;;5131247;27;20098;-81
2022/08/30 05:32:40;;;;;;;3.28;2.25;;;;;;;;;;5128724;27;20032;-81
2022/08/30 05:35:07;;;;;;;0.82;0.65;;;;;;;;;;5131090;27;20110;-81
2022/08/30 05:37:32;;;;;;;1.13;1.13;;;;;;;;;;5109230;27;20038;-81
2022/08/30 05:39:58;;;;;;;0.28;0.28;;;;;;;;;;5113235;27;20399;-82
2022/08/30 05:42:24;;;;;;;0.68;0.32;;;;;;;;;;5113020;27;20022;-81
2022/08/30 05:44:53;;;;;;;0.82;0.82;;;;;;;;;;5128587;27;20026;-82
2022/08/30 05:47:20;;;;;;;0.80;0.80;;;;;;;;;;5127186;27;20059;-81
2022/08/30 05:49:46;;;;;;;0.95;0.90;;;;;;;;;;5129643;27;20645;-81
2022/08/30 05:52:14;;;;;;;0.55;0.55;;;;;;;;;;5131277;27;20391;-82
2022/08/30 05:54:40;;;;;;;0.68;0.68;;;;;;;;;;5130467;27;20054;-81
2022/08/30 05:57:06;;;;;;;1.77;1.67;;;;;;;;;;5132244;27;20352;-82
2022/08/30 05:59:32;;;;;;;0.20;0.13;;;;;;;;;;5124921;27;20035;-82
2022/08/30 06:01:57;;;;;;;0.60;0.60;;;;;;;;;;5128653;27;20026;-81
2022/08/30 06:04:23;;;;;;;1.08;1.08;;;;;;;;;;5112495;27;20408;-81
2022/08/30 06:06:48;;;;;;;0.40;0.40;;;;;;;;;;5130862;27;20507;-82
2022/08/30 06:09:14;;;;;;;0.47;0.40;;;;;;;;;;5110394;27;20031;-80
2022/08/30 06:11:40;;;;;;;0.57;0.57;;;;;;;;;;5131559;27;20027;-82
2022/08/30 06:14:06;;;;;;;0.90;0.77;;;;;;;;;;5129149;27;20374;-82
2022/08/30 06:16:32;;;;;;;0.25;0.25;;;;;;;;;;5132972;27;20027;-81
2022/08/30 06:18:58;;;;;;;0.52;0.52;;;;;;;;;;5128361;27;20027;-82
2022/08/30 06:21:33;;;;;;;0.52;0.47;;;;;;;;;;5108869;27;20023;-81
2022/08/30 06:23:59;;;;;;;0.15;0.15;;;;;;;;;;5127192;27;20110;-81
2022/08/30 06:26:27;;;;;;;0.32;0.25;;;;;;;;;;5130552;27;20076;-82
2022/08/30 06:28:52;;;;;;;0.63;0.63;;;;;;;;;;5130724;27;20110;-81
2022/08/30 06:31:20;;;;;;;0.50;0.43;;;;;;;;;;5108114;27;20102;-81
2022/08/30 06:33:46;;;;;;;0.25;0.25;;;;;;;;;;5129346;27;20112;-81
2022/08/30 06:36:21;;;;;;;0.75;0.75;;;;;;;;;;5126461;27;20465;-82
2022/08/30 06:38:49;;;;;;;0.50;0.50;;;;;;;;;;5129312;27;20022;-82
2022/08/30 06:41:17;;;;;;;1.50;0.20;;;;;;;;;;5129980;27;20498;-81
2022/08/30 06:43:43;;;;;;;1.80;1.05;;;;;;;;;;5112097;27;20030;-82
2022/08/30 06:46:12;;;;;;;0.57;0.57;;;;;;;;;;5130901;27;20022;-82
2022/08/30 06:48:37;;;;;;;0.45;0.45;;;;;;;;;;5128903;27;20042;-82
2022/08/30 06:51:03;;;;;;;2.80;2.25;;;;;;;;;;5132709;27;20023;-82
2022/08/30 06:53:29;;;;;;;0.63;0.63;;;;;;;;;;5130027;27;20034;-83
2022/08/30 06:56:01;;;;;;;0.25;0.25;;;;;;;;;;5112972;28;20045;-81
2022/08/30 06:58:30;;;;;;;0.00;0.00;;;;;;;;;;5112914;28;20085;-80
2022/08/30 07:00:55;;;;;;;1.45;0.98;;;;;;;;;;5113145;28;20119;-82
2022/08/30 07:03:21;;;;;;;1.20;0.43;;;;;;;;;;5113251;28;20455;-83
2022/08/30 07:05:48;;;;;;;0.20;0.20;;;;;;;;;;5129778;28;20443;-82
2022/08/30 07:08:14;;;;;;;0.40;0.40;;;;;;;;;;5129048;28;20035;-83
2022/08/30 07:10:40;;;;;;;0.47;0.45;;;;;;;;;;5131053;28;20081;-82
2022/08/30 07:13:07;;;;;;;0.40;0.40;;;;;;;;;;5109946;28;20114;-82
2022/08/30 07:15:33;;;;;;;0.17;0.15;;;;;;;;;;5128992;28;20073;-81
2022/08/30 07:20:42;;;;;;;1.15;1.05;;;;;;;;;;5128604;28;20025;-82
2022/08/30 07:23:09;;;;;;;1.98;1.83;;;;;;;;;;5129252;28;20130;-82
2022/08/30 07:25:39;;;;;;;0.70;0.60;;;;;;;;;;5129570;28;20027;-81
2022/08/30 07:28:05;;;;;;;;;;;;;;;;;;5128943;27;20054;-82
2022/08/30 07:30:31;;;;;;;4.38;2.15;;;;;;;;;;5111786;28;20347;-81
2022/08/30 07:32:56;;;;;;;0.30;0.20;;;;;;;;;;5130549;28;20031;-82
2022/08/30 07:35:22;;;;;;;0.63;0.63;;;;;;;;;;5108891;28;20027;-82
2022/08/30 07:37:47;;;;;;;0.95;0.95;;;;;;;;;;5125956;28;20076;-81
2022/08/30 07:40:13;;;;;;;0.45;0.35;;;;;;;;;;5129770;28;20030;-82
2022/08/30 07:42:39;;;;;;;0.38;0.38;;;;;;;;;;5130609;28;20030;-81
2022/08/30 07:45:07;;;;;;;0.60;0.60;;;;;;;;;;5127720;27;20031;-82
2022/08/30 07:47:32;;;;;;;1.05;1.05;;;;;;;;;;5134914;27;20485;-81
2022/08/30 07:49:59;;;;;;;0.22;0.22;;;;;;;;;;5133588;27;20027;-79
2022/08/30 07:52:26;;;;;;;0.52;0.43;;;;;;;;;;5113357;27;20018;-82
2022/08/30 07:55:02;;;;;;;1.10;0.95;;;;;;;;;;5133875;27;20057;-82
2022/08/30 07:57:30;;;;;;;1.08;0.65;;;;;;;;;;5132349;27;20031;-81
2022/08/30 07:59:55;;;;;;;1.17;0.63;;;;;;;;;;5130888;27;20077;-81
2022/08/30 08:02:21;;;;;;;0.10;0.10;;;;;;;;;;5116801;27;20497;-80
2022/08/30 08:04:55;;;;;;;0.68;0.68;;;;;;;;;;5134523;27;20072;-81
2022/08/30 08:07:20;;;;;;;0.13;0.13;;;;;;;;;;5131976;27;20517;-81
2022/08/30 08:09:46;;;;;;;0.65;0.65;;;;;;;;;;5115654;27;20031;-82
2022/08/30 08:12:11;;;;;;;0.30;0.30;;;;;;;;;;5132173;27;20795;-82
2022/08/30 08:14:38;;;;;;;0.75;0.70;;;;;;;;;;5132395;27;20509;-83
2022/08/30 08:17:03;;;;;;;0.80;0.80;;;;;;;;;;5135898;27;20026;-82
2022/08/30 08:19:32;;;;;;;0.52;0.52;;;;;;;;;;5135832;27;20031;-83
2022/08/30 08:21:59;;;;;;;1.80;1.70;;;;;;;;;;5135562;27;20027;-82
2022/08/30 08:24:27;;;;;;;0.03;0.03;;;;;;;;;;5132917;27;20053;-81
2022/08/30 08:26:53;;;;;;;0.32;0.32;;;;;;;;;;5135632;27;20049;-82
2022/08/30 08:29:19;;;;;;;10.63;1.00;;;;;;;;;;5133299;27;20023;-83
2022/08/30 08:31:45;;;;;;;0.47;0.47;;;;;;;;;;5134761;27;20015;-81
2022/08/30 08:34:12;;;;;;;0.08;0.08;;;;;;;;;;5131701;27;20126;-82
2022/08/30 08:36:37;;;;;;;1.13;0.65;;;;;;;;;;5129099;27;20027;-84
2022/08/30 08:39:05;;;;;;;0.65;0.50;;;;;;;;;;5128034;27;20469;-84
2022/08/30 08:41:54;;;;;;;0.30;0.30;;;;;;;;;;5132268;27;20405;-82
2022/08/30 08:44:35;;;;;;;;;;;;;;;;;;5131262;27;20344;-80
2022/08/30 08:47:10;;;;;;;0.05;0.05;;;;;;;;;;5132310;27;19911;-81
2022/08/30 08:49:38;;;;;;;0.90;0.52;;;;;;;;;;5132415;27;20497;-81
2022/08/30 08:54:59;;;;;;;0.10;0.10;;;;;;;;;;5133422;27;20061;-81
2022/08/30 08:57:33;;;;;;;0.00;0.00;;;;;;;;;;5125514;27;20015;-82
2022/08/30 08:59:58;;;;;;;0.55;0.55;;;;;;;;;;5129916;27;20058;-81
2022/08/30 09:02:26;;;;;;;0.30;0.20;;;;;;;;;;5128797;27;20059;-82
2022/08/30 09:05:00;;;;;;;0.00;0.00;;;;;;;;;;5111444;27;20027;-83
2022/08/30 09:07:42;;;;;;;0.93;0.38;;;;;;;;;;5130765;27;20035;-83
2022/08/30 09:10:08;;;;;;;0.47;0.13;;;;;;;;;;5112143;27;20050;-82
2022/08/30 09:12:33;;;;;;;0.32;0.32;;;;;;;;;;5128010;27;20472;-83
2022/08/30 09:15:19;;;;;;;0.20;0.20;;;;;;;;;;5131903;27;20033;-81
2022/08/30 09:18:11;;;;;;;0.52;0.52;;;;;;;;;;5131447;27;20023;-82
2022/08/30 09:20:45;;;;;;;0.10;0.10;;;;;;;;;;5127506;27;20022;-82
2022/08/30 09:23:19;;;;;;;0.63;0.63;;;;;;;;;;5127156;27;20483;-81
2022/08/30 09:25:54;;;;;;;0.17;0.17;;;;;;;;;;5128179;27;20023;-82
2022/08/30 09:28:24;;;;;;;0.10;0.10;;;;;;;;;;5129620;27;20453;-82
2022/08/30 09:31:02;;;;;;;0.10;0.10;;;;;;;;;;5129982;27;20524;-80
2022/08/30 09:33:28;;;;;;;0.25;0.20;;;;;;;;;;5127185;27;20023;-81
2022/08/30 09:35:53;;;;;;;0.40;0.40;;;;;;;;;;5130681;27;20027;-81
2022/08/30 09:38:34;;;;;;;0.47;0.47;;;;;;;;;;5131404;27;20030;-84
2022/08/30 09:41:28;;;;;;;1.08;1.00;;;;;;;;;;5108871;27;20432;-83
2022/08/30 09:44:08;;;;;;;0.38;0.20;;;;;;;;;;5097207;27;20043;-81
2022/08/30 09:46:43;;;;;;;0.70;0.70;;;;;;;;;;5105962;27;20027;-83
2022/08/30 09:49:29;;;;;;;0.70;0.70;;;;;;;;;;5134457;27;20366;-81
2022/08/30 09:52:15;;;;;;;0.73;0.73;;;;;;;;;;5130789;27;20527;-82
2022/08/30 09:54:52;;;;;;;0.90;0.32;;;;;;;;;;5130072;27;20068;-81
2022/08/30 09:57:18;;;;;;;0.47;0.47;;;;;;;;;;5130683;27;20393;-83
2022/08/30 09:59:56;;;;;;;0.80;0.80;;;;;;;;;;5131466;27;20027;-82
2022/08/30 10:02:27;;;;;;;0.52;0.52;;;;;;;;;;5107788;27;20034;-81
2022/08/30 10:05:05;;;;;;;2.65;1.70;;;;;;;;;;5129139;27;20023;-83
2022/08/30 10:07:46;;;;;;;0.85;0.85;;;;;;;;;;5127186;27;20015;-82
2022/08/30 10:10:41;;;;;;;1.27;1.17;;;;;;;;;;5123176;27;20027;-83
2022/08/30 10:13:06;;;;;;;0.22;0.20;;;;;;;;;;5130548;27;20474;-83
2022/08/30 10:15:43;;;;;;;0.10;0.10;;;;;;;;;;5128280;27;20076;-81
2022/08/30 10:18:16;;;;;;;0.75;0.75;;;;;;;;;;5124309;27;20023;-81
2022/08/30 10:21:09;;;;;;;0.13;0.13;;;;;;;;;;5129832;27;20019;-84
2022/08/30 10:23:44;;;;;;;0.73;0.65;;;;;;;;;;5128306;27;20035;-84
2022/08/30 10:26:31;;;;;;;0.40;0.38;;;;;;;;;;5126320;27;20026;-82
2022/08/30 10:29:15;;;;;;;0.20;0.20;;;;;;;;;;5127595;27;20031;-81
2022/08/30 10:31:55;;;;;;;0.57;0.57;;;;;;;;;;5123112;27;20475;-83
2022/08/30 10:34:25;;;;;;;0.88;0.88;;;;;;;;;;5127213;27;20027;-82
2022/08/30 10:36:58;;;;;;;0.05;0.05;;;;;;;;;;5125408;27;20031;-83
2022/08/30 10:39:28;;;;;;;0.70;0.63;;;;;;;;;;5125706;27;20027;-81
2022/08/30 10:42:14;;;;;;;0.47;0.35;;;;;;;;;;5124324;27;20039;-81
2022/08/30 10:44:44;;;;;;;0.47;0.47;;;;;;;;;;5128676;27;20436;-83
2022/08/30 10:47:17;;;;;;;0.13;0.13;;;;;;;;;;5107311;27;20483;-82
2022/08/30 10:49:48;;;;;;;0.32;0.32;;;;;;;;;;5125278;27;20027;-83
2022/08/30 10:52:22;;;;;;;0.10;0.10;;;;;;;;;;5130932;27;20019;-81
2022/08/30 10:55:12;;;;;;;1.67;1.17;;;;;;;;;;5127845;27;20038;-83
2022/08/30 10:57:38;;;;;;;0.13;0.13;;;;;;;;;;5127531;27;20058;-82
2022/08/30 11:00:12;;;;;;;0.63;0.63;;;;;;;;;;5130467;27;20066;-81
2022/08/30 11:03:16;;;;;;;19.77;2.58;;;;;;;;;;5127268;28;20077;-80
2022/08/30 11:05:53;;;;;;;0.47;0.47;;;;;;;;;;5032434;28;20394;-81
2022/08/30 11:08:28;;;;;;;0.13;0.13;;;;;;;;;;5118074;28;20056;-83
2022/08/30 11:11:05;;;;;;;0.35;0.32;;;;;;;;;;5128687;28;20039;-83
2022/08/30 11:13:34;;;;;;;0.30;0.30;;;;;;;;;;5129701;28;20033;-83
2022/08/30 11:16:14;;;;;;;0.85;0.85;;;;;;;;;;5108485;28;20031;-83
2022/08/30 11:18:57;;;;;;;1.38;0.28;;;;;;;;;;5127968;28;20073;-83
2022/08/30 11:21:37;;;;;;;0.65;0.65;;;;;;;;;;5130747;27;20102;-81
2022/08/30 11:24:18;;;;;;;1.90;0.88;;;;;;;;;;5132262;27;20074;-80
2022/08/30 11:26:43;;;;;;;0.32;0.32;;;;;;;;;;5133215;27;20023;-82
2022/08/30 11:29:35;;;;;;;0.50;0.50;;;;;;;;;;5130133;27;20179;-83
2022/08/30 11:32:17;;;;;;;0.98;0.80;;;;;;;;;;5134166;27;20023;-82
2022/08/30 11:34:45;;;;;;;0.10;0.10;;;;;;;;;;5129852;27;20467;-83
2022/08/30 11:37:42;;;;;;;0.65;0.65;;;;;;;;;;5132361;27;20030;-82
2022/08/30 11:40:21;;;;;;;0.82;0.82;;;;;;;;;;5134388;27;20039;-82
2022/08/30 11:42:48;;;;;;;1.83;0.77;;;;;;;;;;5131599;27;20027;-83
2022/08/30 11:45:23;;;;;;;0.70;0.70;;;;;;;;;;5132859;27;20042;-82
2022/08/30 11:47:53;;;;;;;0.10;0.10;;;;;;;;;;5133064;27;20030;-81
2022/08/30 11:50:21;;;;;;;0.17;0.17;;;;;;;;;;5131587;27;20030;-82
2022/08/30 11:53:04;;;;;;;0.32;0.32;;;;;;;;;;5113421;27;20027;-83
2022/08/30 11:55:32;;;;;;;0.88;0.77;;;;;;;;;;5134772;27;20054;-82
2022/08/30 11:58:03;;;;;;;0.47;0.45;;;;;;;;;;5133791;27;20387;-81
2022/08/30 12:00:39;;;;;;;1.02;0.93;;;;;;;;;;5130316;27;20034;-83
2022/08/30 12:03:30;;;;;;;0.13;0.13;;;;;;;;;;5134427;27;20054;-81
2022/08/30 12:06:01;;;;;;;2.22;0.50;;;;;;;;;;5132535;27;20474;-83
2022/08/30 12:08:33;;;;;;;0.40;0.40;;;;;;;;;;5129714;27;20449;-82
2022/08/30 12:11:00;;;;;;;0.40;0.40;;;;;;;;;;5130196;27;20041;-82
2022/08/30 12:13:37;;;;;;;0.90;0.52;;;;;;;;;;5130645;27;20030;-84
2022/08/30 12:16:12;;;;;;;0.25;0.25;;;;;;;;;;5131960;27;20104;-82
2022/08/30 12:18:47;;;;;;;0.63;0.63;;;;;;;;;;5131564;27;20023;-83
2022/08/30 12:21:23;;;;;;;0.28;0.25;;;;;;;;;;5130302;27;20037;-83
2022/08/30 12:24:21;;;;;;;0.82;0.75;;;;;;;;;;5129084;27;20098;-79
2022/08/30 12:26:48;;;;;;;1.70;1.02;;;;;;;;;;5125706;27;20113;-83
2022/08/30 12:29:25;;;;;;;0.10;0.10;;;;;;;;;;5128588;27;20019;-80
2022/08/30 12:32:00;;;;;;;0.30;0.30;;;;;;;;;;5127740;27;20046;-80
2022/08/30 12:34:42;;;;;;;0.43;0.43;;;;;;;;;;5128440;27;20027;-84
2022/08/30 12:37:30;;;;;;;0.98;0.57;;;;;;;;;;5132616;27;20023;-82
2022/08/30 12:40:13;;;;;;;0.30;0.30;;;;;;;;;;5131341;27;20428;-82
2022/08/30 12:42:48;;;;;;;0.10;0.10;;;;;;;;;;5131271;27;20459;-80
2022/08/30 12:45:16;;;;;;;0.38;0.38;;;;;;;;;;5108443;27;20323;-81
2022/08/30 12:48:06;;;;;;;0.63;0.63;;;;;;;;;;5112322;27;20049;-82
2022/08/30 12:50:52;;;;;;;0.77;0.52;;;;;;;;;;5132306;27;20067;-81
2022/08/30 12:53:27;;;;;;;1.02;0.77;;;;;;;;;;5127051;27;20023;-83
2022/08/30 12:56:11;;;;;;;0.88;0.52;;;;;;;;;;5133522;27;20050;-82
2022/08/30 12:58:48;;;;;;;2.00;0.80;;;;;;;;;;5132830;27;20034;-82
2022/08/30 13:01:26;;;;;;;0.32;0.30;;;;;;;;;;5114266;27;20109;-82
2022/08/30 13:04:19;;;;;;;0.65;0.65;;;;;;;;;;5112657;27;20027;-83
2022/08/30 13:06:56;;;;;;;0.85;0.85;;;;;;;;;;5134380;27;20501;-83
2022/08/30 13:09:25;;;;;;;0.10;0.10;;;;;;;;;;5133103;27;20023;-82
2022/08/30 13:11:52;;;;;;;1.30;0.80;;;;;;;;;;5113159;27;20022;-81
2022/08/30 13:14:32;;;;;;;0.30;0.30;;;;;;;;;;5109627;27;20047;-81
2022/08/30 13:17:04;;;;;;;0.20;0.20;;;;;;;;;;5127501;27;20027;-81
2022/08/30 13:19:42;;;;;;;0.32;0.32;;;;;;;;;;5127196;27;20507;-81
2022/08/30 13:23:03;;;;;;;0.63;0.60;;;;;;;;;;5132891;27;20035;-81
2022/08/30 13:25:29;;;;;;;0.73;0.32;;;;;;;;;;5088496;28;20028;-83
2022/08/30 13:27:55;;;;;;;0.43;0.43;;;;;;;;;;5124542;27;20051;-80
2022/08/30 13:30:21;;;;;;;1.45;0.77;;;;;;;;;;5131393;27;20030;-82
2022/08/30 13:32:46;;;;;;;0.77;0.77;;;;;;;;;;5110762;27;20053;-82
2022/08/30 13:35:12;;;;;;;0.40;0.40;;;;;;;;;;5130914;27;20031;-82
2022/08/30 13:37:40;;;;;;;2.58;0.98;;;;;;;;;;5129498;27;20098;-82
2022/08/30 13:40:07;;;;;;;0.28;0.25;;;;;;;;;;5111301;27;20430;-84
2022/08/30 13:42:32;;;;;;;0.82;0.82;;;;;;;;;;5112716;27;20035;-81
2022/08/30 13:44:58;;;;;;;1.27;0.55;;;;;;;;;;5127738;27;20046;-80
2022/08/30 13:47:23;;;;;;;0.60;0.60;;;;;;;;;;5114799;27;20386;-82
2022/08/30 13:49:48;;;;;;;0.88;0.85;;;;;;;;;;5126609;27;20019;-81
2022/08/30 13:52:24;;;;;;;0.63;0.63;;;;;;;;;;5123711;27;20027;-81
2022/08/30 13:54:51;;;;;;;1.20;0.95;;;;;;;;;;5109238;27;20287;-82
2022/08/30 13:57:20;;;;;;;0.77;0.77;;;;;;;;;;5127237;27;20030;-84
2022/08/30 13:59:47;;;;;;;0.32;0.32;;;;;;;;;;5126897;27;20047;-83
2022/08/30 14:02:12;;;;;;;0.20;0.13;;;;;;;;;;5125606;27;20032;-80
2022/08/30 14:04:37;;;;;;;0.35;0.35;;;;;;;;;;5122850;27;20383;-83
2022/08/30 14:07:03;;;;;;;1.02;0.60;;;;;;;;;;5127692;27;20083;-81
2022/08/30 14:09:29;;;;;;;0.30;0.30;;;;;;;;;;5123174;27;20066;-83
2022/08/30 14:11:54;;;;;;;6.82;1.67;;;;;;;;;;5109180;27;20058;-82
2022/08/30 14:14:20;;;;;;;0.50;0.50;;;;;;;;;;5126205;27;20439;-81
2022/08/30 14:16:45;;;;;;;0.73;0.73;;;;;;;;;;5108426;27;20372;-82
2022/08/30 14:19:13;;;;;;;0.20;0.20;;;;;;;;;;5124120;27;20043;-82
2022/08/30 14:21:39;;;;;;;0.35;0.22;;;;;;;;;;5112051;27;20027;-83
2022/08/30 14:24:05;;;;;;;0.68;0.68;;;;;;;;;;5110692;28;20027;-84
2022/08/30 14:26:46;;;;;;;0.30;0.30;;;;;;;;;;5128220;27;20026;-82
2022/08/30 14:29:14;;;;;;;1.15;0.77;;;;;;;;;;5129380;27;20069;-82
2022/08/30 14:31:40;;;;;;;0.30;0.30;;;;;;;;;;5128099;27;20027;-83
2022/08/30 14:34:08;;;;;;;0.35;0.35;;;;;;;;;;5107707;27;20015;-82
2022/08/30 14:36:36;;;;;;;0.50;0.50;;;;;;;;;;5125913;27;20031;-82
2022/08/30 14:39:05;;;;;;;1.58;1.48;;;;;;;;;;5129105;27;20027;-82
2022/08/30 14:41:31;;;;;;;0.95;0.90;;;;;;;;;;5127778;27;20506;-81
2022/08/30 14:43:56;;;;;;;1.48;1.38;;;;;;;;;;5130251;27;20035;-82
2022/08/30 14:46:24;;;;;;;0.70;0.50;;;;;;;;;;5126319;27;20019;-82
2022/08/30 14:48:49;;;;;;;0.57;0.38;;;;;;;;;;5131558;27;20042;-81
2022/08/30 14:51:18;;;;;;;0.25;0.03;;;;;;;;;;5132330;27;20030;-82
2022/08/30 14:53:45;;;;;;;0.47;0.47;;;;;;;;;;5128184;27;20031;-82
2022/08/30 14:56:14;;;;;;;1.23;1.02;;;;;;;;;;5130449;27;20287;-83
2022/08/30 14:58:40;;;;;;;0.47;0.28;;;;;;;;;;5108538;28;20088;-83
2022/08/30 15:01:10;;;;;;;0.88;0.88;;;;;;;;;;5110518;28;20150;-82
2022/08/30 15:03:37;;;;;;;0.30;0.30;;;;;;;;;;5130301;28;20136;-83
2022/08/30 15:06:03;;;;;;;4.97;1.20;;;;;;;;;;5128889;27;20491;-81